Tiempo atmosférico en la estación meteorológica de Azpeitia, Gipuzkoa (180 m.)



Fecha
DESCASC
Temp. máxima en grados centígrados (hora)
DESCASC
Temp. mínima en grados centígrados (hora)
DESCASC
Temp. media en grados centígrados
DESCASC
Racha de viento máxima en m/sg (hora)
DESCASC
Velocidad máxima media en intervalos de 10 minutos(hora)
DESCASC
Precipitaciones diarias en mm
DESCASC
Precipitaciones de 00:00 a 06:00 en mm
DESCASC
Precipitaciones de 06:00 a 12:00 en mm
DESCASC
Precipitaciones de 12:00 a 18:00 en mm
DESCASC
Precipitaciones de 18:00 a 24:00 en mm
DESCASC
14-12-2019 16.4 (14:30) 9.4 (03:30) 12.9 10.56 (23:10) 3.33 (21:10) 0 0 0 0 0
13-12-2019 15.5 (14:30) 12.7 (23:59) 14.1 21.94 (11:00) 8.33 (11:50) 16.2 10.4 0.8 4.2 0.8
12-12-2019 13.7 (23:50) 7.6 (07:00) 10.6 11.94 (23:30) 4.17 (23:50) 46.2 5.4 0.6 15.8 24.4
11-12-2019 11.4 (06:30) 7.9 (00:00) 9.6 11.11 (21:10) 4.17 (10:10) 15 0 6 0 9
10-12-2019 14.6 (14:40) 6.1 (00:00) 10.4 2.78 (10:50) 1.94 (15:20) 0 0 0 0 0
09-12-2019 12.4 (15:20) 7.1 (00:00) 9.7 13.06 (14:20) 5 (14:20) 5.2 0 4.6 0.2 0.4
08-12-2019 11.9 (22:50) 5.9 (00:00) 8.9 9.72 (21:20) 3.89 (21:20) 6.8 0 0.2 6.6 0
07-12-2019 14.4 (15:20) 4.4 (00:00) 9.4 3.33 (17:00) 1.94 (17:00) 0 0 0 0 0
06-12-2019 16.4 (15:10) 3.7 (00:00) 10 5.83 (14:10) 2.22 (16:40) 0 0 0 0 0
05-12-2019 13.8 (15:10) 7.1 (00:00) 10.5 5 (16:30) 1.39 (03:30) 0 0 0 0 0
04-12-2019 11.1 (15:00) -0.2 (00:00) 5.5 7.78 (20:00) 2.22 (18:10) 0 0 0 0 0
03-12-2019 7.8 (14:10) 1.5 (00:00) 4.7 2.78 (14:10) 1.67 (17:50) 2.6 2.6 0 0 0
02-12-2019 9 (11:10) 6.1 (00:00) 7.5 6.39 (12:50) 2.78 (12:50) 5.4 0.2 4.6 0.6 0
01-12-2019 14.4 (14:40) 4.3 (00:00) 9.3 4.72 (15:30) 1.67 (15:30) 11.4 0 0 0 11.4
30-11-2019 16.3 (09:40) 6.8 (00:00) 11.5 6.11 (11:10) 2.78 (07:10) 23.8 0 0.6 22.8 0.4
29-11-2019 17.1 (15:10) 7.7 (00:00) 12.4 4.17 (17:00) 2.22 (06:10) 2.2 2.2 0 0 0
28-11-2019 13 (14:30) 9.8 (00:00) 11.4 8.33 (04:00) 2.5 (04:00) 7.6 0 0 5.8 1.8
27-11-2019 17.2 (00:10) 10.1 (00:00) 13.7 10.83 (02:20) 2.78 (02:20) 0.8 0 0 0.2 0.6
26-11-2019 19.4 (12:50) 9.2 (00:00) 14.3 11.67 (21:20) 3.89 (21:10) 0 0 0 0 0
25-11-2019 16.7 (13:00) 9.3 (00:00) 13 6.11 (13:40) 1.94 (00:50) 0.2 0.2 0 0 0
24-11-2019 12.3 (15:00) 8 (00:00) 10.2 4.44 (12:40) 1.67 (12:10) 16.2 12.2 1.8 0 2.2
23-11-2019 14.3 (00:10) 8.8 (00:00) 11.6 14.44 (08:20) 5.56 (08:30) 42 3 27.4 4.8 6.8
22-11-2019 14.7 (21:40) 6.4 (00:00) 10.5 15 (23:20) 4.44 (09:30) 1 0 0 0.8 0.2
21-11-2019 14.3 (15:10) 5.7 (00:00) 10 8.33 (12:40) 2.78 (00:20) 0 0 0 0 0
20-11-2019 12.8 (15:10) 4.2 (00:00) 8.5 8.33 (23:30) 3.61 (13:20) 0 0 0 0 0
19-11-2019 12.6 (15:40) 4.1 (00:00) 8.4 2.5 (16:20) 1.39 (04:20) 0 0 0 0 0
18-11-2019 8.9 (15:30) 4.7 (00:00) 6.8 -- (--) -- (--) 0.6 0 0 0 0.6
17-11-2019 10.5 (15:20) 6.4 (00:00) 8.5 5 (15:50) 1.94 (21:10) -- -- -- -- --
16-11-2019 7.6 (20:00) 1.4 (00:00) 4.5 4.17 (11:30) 1.67 (11:30) -- -- -- -- --
15-11-2019 10 (13:50) 4.1 (00:00) 7 7.5 (11:10) 3.33 (11:10) 6.6 0.6 6 0 0

Gráficas

Temp. máximas Temp. mínimas Temp. medias Precipitaciones Rachas de viento máximas Velocidades máximas media en intervalos de 10 minutos

Datos horarios

Fecha y hora oficial Temperatura (ºC) Velocidad del viento (km/h) Dirección del viento Racha (km/h) Dirección de racha Precipitación (mm) Presión (hPa) Tendencia (hPa) Humedad (%)
2019-12-14 23:00:00 15 12 Sudoeste 35 Sudoeste 0 -- -- 56
2019-12-14 22:00:00 14.9 8 Sur 28 Sur 0 -- -- 57
2019-12-14 21:00:00 14.9 11 Sur 27 Sur 0 -- -- 59
2019-12-14 20:00:00 15.1 12 Sudoeste 35 Noroeste 0 -- -- 58
2019-12-14 19:00:00 14.4 7 Oeste 30 Oeste 0 -- -- 60
2019-12-14 18:00:00 14.8 7 Nordeste 29 Oeste 0 -- -- 57
2019-12-14 17:00:00 15.1 8 Sur 24 Sur 0 -- -- 56
2019-12-14 16:00:00 15.6 5 Sur 16 Sudeste 0 -- -- 57
2019-12-14 15:00:00 16.2 7 Sudoeste 18 Sudoeste 0 -- -- 57
2019-12-14 14:00:00 16.3 3 Sudeste 28 Sudoeste 0 -- -- 59
2019-12-14 13:00:00 14.9 7 Sudoeste 17 Sudoeste 0 -- -- 61
2019-12-14 12:00:00 14 3 Nordeste 14 Sur 0 -- -- 64
2019-12-14 11:00:00 14.3 8 Sudoeste 12 Oeste 0 -- -- 61
2019-12-14 10:00:00 12.2 3 Sur 8 Sudeste 0 -- -- 71
2019-12-14 09:00:00 11.5 5 Sur 9 Sudoeste 0 -- -- 73
2019-12-14 08:00:00 11.4 4 Sudeste 8 Sudeste 0 -- -- 78
2019-12-14 07:00:00 10.9 0 Calma 7 Este 0 -- -- 82
2019-12-14 06:00:00 10.8 4 Sur 11 Sur 0 -- -- 83
2019-12-14 05:00:00 9.8 4 Sudeste 8 Sudeste 0 -- -- 95
2019-12-14 04:00:00 9.6 3 Sur 5 Sudoeste 0 -- -- 96
2019-12-14 03:00:00 9.7 3 Oeste 8 Sudoeste 0 -- -- 93
2019-12-14 02:00:00 10.6 3 Sudoeste 6 Sudeste 0 -- -- 90
2019-12-14 01:00:00 11.7 3 Sudeste 8 Este 0 -- -- 86
2019-12-14 00:00:00 12.7 3 Sudeste 12 Oeste 0 -- -- 82
2019-12-13 23:00:00 13.4 5 Sur 29 Oeste 0 -- -- 77
2019-12-13 22:00:00 13.6 11 Oeste 40 Noroeste 0 -- -- 78
2019-12-13 21:00:00 13.5 14 Noroeste 36 Noroeste 0 -- -- 82
2019-12-13 20:00:00 13.4 11 Noroeste 42 Oeste 0 -- -- 85
2019-12-13 19:00:00 13.4 17 Noroeste 42 Norte 0.8 -- -- 88
2019-12-13 18:00:00 13.4 11 Oeste 43 Noroeste 1.4 -- -- 91
2019-12-13 17:00:00 13.5 11 Oeste 26 Oeste 2.2 -- -- 93
2019-12-13 16:00:00 14 12 Oeste 41 Oeste 0.6 -- -- 88
2019-12-13 15:00:00 15.1 17 Noroeste 54 Noroeste 0 -- -- 78
2019-12-13 14:00:00 15.3 21 Noroeste 59 Oeste 0 -- -- 74
2019-12-13 13:00:00 15.2 19 Oeste 75 Oeste 0 -- -- 75
2019-12-13 12:00:00 15.3 18 Oeste 70 Oeste 0 -- -- 75
2019-12-13 11:00:00 14.8 23 Noroeste 79 Noroeste 0.2 -- -- 78
2019-12-13 10:00:00 15.1 26 Oeste 62 Oeste 0 -- -- 75
2019-12-13 09:00:00 14.9 21 Oeste 64 Oeste 0.4 -- -- 75
2019-12-13 08:00:00 14.4 24 Oeste 75 Oeste 0.2 -- -- 82
2019-12-13 07:00:00 14.9 24 Oeste 72 Noroeste 0 -- -- 77
2019-12-13 06:00:00 13.9 17 Oeste 62 Oeste 1.6 -- -- 87
2019-12-13 05:00:00 13.8 18 Oeste 53 Oeste 1.4 -- -- 89
2019-12-13 04:00:00 14.5 17 Oeste 48 Oeste 1.2 -- -- 83
2019-12-13 03:00:00 13.7 12 Oeste 41 Oeste 2.4 -- -- 89
2019-12-13 02:00:00 13.9 19 Oeste 57 Oeste 1.6 -- -- 88
2019-12-13 01:00:00 13.7 17 Oeste 48 Sudoeste 2.2 -- -- 90
2019-12-13 00:00:00 13.6 11 Oeste 43 Noroeste 2 -- -- 90
2019-12-12 23:00:00 13.1 9 Oeste 31 Oeste 4 -- -- 92
2019-12-12 22:00:00 12.5 10 Oeste 33 Sudoeste 5.8 -- -- 95
2019-12-12 21:00:00 11.6 10 Oeste 30 Sudoeste 3.2 -- -- 98
2019-12-12 20:00:00 9.6 6 Sudeste 11 Sudeste 3.4 -- -- 98
2019-12-12 19:00:00 9.1 3 Nordeste 6 Sur 6 -- -- 96
2019-12-12 18:00:00 9 3 Sudeste 8 Sudeste 4.4 -- -- 95
2019-12-12 17:00:00 9.1 4 Sudeste 14 Sur 3.2 -- -- 92
2019-12-12 16:00:00 9.5 4 Sudoeste 36 Sur 2.4 -- -- 87
2019-12-12 15:00:00 10.1 7 Oeste 27 Sudoeste 3.4 -- -- 78
2019-12-12 14:00:00 9.5 3 Norte 19 Sudoeste 1.8 -- -- 86
2019-12-12 13:00:00 9.9 3 Noroeste 21 Sudoeste 0.6 -- -- 81
2019-12-12 12:00:00 9.3 3 Nordeste 9 Oeste 0.2 -- -- 85
2019-12-12 11:00:00 8.8 3 Este 16 Sur 0.2 -- -- 85
2019-12-12 10:00:00 8.1 2 Sur 8 Este 0 -- -- 88
2019-12-12 09:00:00 7.6 3 Sur 5 Sur 0 -- -- 90
2019-12-12 08:00:00 7.7 2 Sudoeste 6 Sudoeste 0.2 -- -- 90
2019-12-12 07:00:00 7.6 3 Sur 5 Sudeste 0 -- -- 92
2019-12-12 06:00:00 7.8 4 Sudoeste 6 Sudoeste 0.2 -- -- 93
2019-12-12 05:00:00 7.9 4 Sudoeste 8 Oeste 0.2 -- -- 93
2019-12-12 04:00:00 8.1 3 Sudeste 10 Sudoeste 0.4 -- -- 91
2019-12-12 03:00:00 8.1 2 Sudeste 6 Sudeste 2.8 -- -- 93
2019-12-12 02:00:00 8.3 3 Este 10 Sudeste 0.4 -- -- 89
2019-12-12 01:00:00 8.4 4 Sudeste 18 Oeste 1.4 -- -- 89
2019-12-12 00:00:00 8.7 5 Noroeste 23 Oeste 0.8 -- -- 85
2019-12-11 23:00:00 8.1 5 Sur 13 Oeste 2.4 -- -- 90
2019-12-11 22:00:00 8.5 3 Oeste 40 Oeste 1.8 -- -- 87
2019-12-11 21:00:00 8.6 8 Oeste 21 Oeste 2.4 -- -- 87
2019-12-11 20:00:00 8.4 5 Sudeste 38 Oeste 1.4 -- -- 85
2019-12-11 19:00:00 9.5 12 Oeste 27 Oeste 0.2 -- -- 69
2019-12-11 18:00:00 9.4 3 Sudeste 8 Sudeste 0 -- -- 67
2019-12-11 17:00:00 10 3 Noroeste 15 Oeste 0 -- -- 62
2019-12-11 16:00:00 10.5 5 Oeste 25 Sudoeste 0 -- -- 65
2019-12-11 15:00:00 10.5 10 Noroeste 31 Oeste 0 -- -- 68
2019-12-11 14:00:00 10.3 8 Oeste 23 Oeste 0 -- -- 72
2019-12-11 13:00:00 9.2 9 Oeste 24 Oeste 0 -- -- 83
2019-12-11 12:00:00 9 7 Oeste 26 Sudoeste 0.2 -- -- 83
2019-12-11 11:00:00 9.1 8 Oeste 38 Noroeste 0.4 -- -- 86
2019-12-11 10:00:00 9.6 9 Noroeste 25 Oeste 2.8 -- -- 90
2019-12-11 09:00:00 10.2 12 Oeste 23 Oeste 2.4 -- -- 87
2019-12-11 08:00:00 11.2 8 Oeste 20 Oeste 0.2 -- -- 75
2019-12-11 07:00:00 10.8 6 Sudeste 17 Sudoeste 0 -- -- 59
2019-12-11 06:00:00 10.7 4 Sudeste 13 Sudeste 0 -- -- 58
2019-12-11 05:00:00 10.9 7 Oeste 13 Oeste 0 -- -- 57
2019-12-11 04:00:00 9.7 4 Oeste 11 Sudoeste 0 -- -- 66
2019-12-11 03:00:00 9.4 3 Sudeste 7 Sudeste 0 -- -- 72
2019-12-11 02:00:00 9.5 0 Calma 8 Noroeste 0 -- -- 77
2019-12-11 01:00:00 9.3 2 Sudeste 8 Sudeste 0 -- -- 81
2019-12-11 00:00:00 9.2 4 Sudoeste 7 Noroeste 0 -- -- 81
2019-12-10 23:00:00 8.9 2 Sur 5 Sudeste 0 -- -- 85
2019-12-10 22:00:00 8.8 3 Sudeste 5 Sur 0 -- -- 86
2019-12-10 21:00:00 8.8 2 Sudeste 4 Este 0 -- -- 86
2019-12-10 20:00:00 9.3 0 Calma 5 Sudeste 0 -- -- 85
2019-12-10 19:00:00 9.8 4 Sudoeste 5 Sudoeste 0 -- -- 81
2019-12-10 18:00:00 11 0 Calma 4 Sudoeste 0 -- -- 77
2019-12-10 17:00:00 12.9 3 Sudoeste 9 Sudoeste 0 -- -- 67
2019-12-10 16:00:00 13.8 5 Sudoeste 9 Sudoeste 0 -- -- 66
2019-12-10 15:00:00 14.6 5 Sudoeste 6 Sudoeste 0 -- -- 68
2019-12-10 14:00:00 13.1 4 Oeste 7 Oeste 0 -- -- 73
2019-12-10 13:00:00 9.7 4 Sudoeste 6 Sudoeste 0 -- -- 90
2019-12-10 12:00:00 8.3 2 Sudeste 9 Oeste 0 -- -- 98
2019-12-10 11:00:00 7 6 Oeste 10 Oeste 0 -- -- 99
2019-12-10 10:00:00 6.6 2 Este 5 Este 0 -- -- 98
2019-12-10 09:00:00 6.1 0 Calma 10 Oeste 0 -- -- 97
2019-12-10 08:00:00 6.8 0 Calma 7 Sudoeste 0 -- -- 98
2019-12-10 07:00:00 6.9 3 Oeste 8 Oeste 0 -- -- 98
2019-12-10 06:00:00 7.3 3 Sudeste 10 Sudoeste 0 -- -- 97
2019-12-10 05:00:00 7.3 2 Este 4 Sudeste 0 -- -- 96
2019-12-10 04:00:00 7.9 0 Calma 5 Sur 0 -- -- 94
2019-12-10 03:00:00 8.7 2 Sudeste 5 Sudeste 0 -- -- 94
2019-12-10 02:00:00 8.9 2 Sudeste 5 Este 0 -- -- 92
2019-12-10 01:00:00 9.2 3 Sur 8 Sudoeste 0 -- -- 91
2019-12-10 00:00:00 9.8 7 Oeste 17 Oeste 0 -- -- 84
2019-12-09 23:00:00 10 8 Oeste 20 Sudoeste 0 -- -- 84
2019-12-09 22:00:00 9.9 7 Oeste 12 Sudoeste 0.2 -- -- 85
2019-12-09 21:00:00 10.4 5 Norte 34 Oeste 0.2 -- -- 85
2019-12-09 20:00:00 10.6 4 Norte 18 Noroeste 0 -- -- 79
2019-12-09 19:00:00 10.7 7 Oeste 24 Noroeste 0 -- -- 76
2019-12-09 18:00:00 11.1 8 Noroeste 26 Noroeste 0 -- -- 72
2019-12-09 17:00:00 11.8 12 Noroeste 41 Oeste 0 -- -- 67
2019-12-09 16:00:00 12.1 15 Oeste 41 Oeste 0 -- -- 63
2019-12-09 15:00:00 12.2 14 Noroeste 47 Sudoeste 0 -- -- 66
2019-12-09 14:00:00 11.8 17 Noroeste 45 Noroeste 0.2 -- -- 70
2019-12-09 13:00:00 12 13 Noroeste 37 Oeste 0 -- -- 70
2019-12-09 12:00:00 11.3 15 Oeste 34 Sudoeste 0 -- -- 79
2019-12-09 11:00:00 10.5 12 Oeste 40 Oeste 2 -- -- 85
2019-12-09 10:00:00 10.7 15 Oeste 37 Sudoeste 0.2 -- -- 82
2019-12-09 09:00:00 10.2 10 Oeste 31 Noroeste 2.2 -- -- 87
2019-12-09 08:00:00 10.9 10 Oeste 46 Sudoeste 0.2 -- -- 80
2019-12-09 07:00:00 11.2 12 Oeste 41 Oeste 0 -- -- 75
2019-12-09 06:00:00 11.1 11 Oeste 36 Oeste 0 -- -- 76
2019-12-09 05:00:00 9.3 5 Oeste 13 Oeste 0 -- -- 85
2019-12-09 04:00:00 8.2 5 Sur 12 Sudeste 0 -- -- 94
2019-12-09 03:00:00 7.2 3 Noroeste 10 Oeste 0 -- -- 94
2019-12-09 02:00:00 7.5 3 Sur 7 Oeste 0 -- -- 92
2019-12-09 01:00:00 9 2 Este 7 Sudeste 0 -- -- 85
2019-12-09 00:00:00 10.9 2 Norte 13 Sudoeste 0 -- -- 80
2019-12-08 23:00:00 11.9 8 Sudoeste 19 Oeste 0 -- -- 72
2019-12-08 22:00:00 11.7 6 Oeste 35 Oeste 0 -- -- 75
2019-12-08 21:00:00 11.5 5 Sudoeste 19 Oeste 0 -- -- 78
2019-12-08 20:00:00 11.6 6 Oeste 19 Sudoeste 0 -- -- 79
2019-12-08 19:00:00 11.7 9 Sudoeste 24 Sur 0 -- -- 81
2019-12-08 18:00:00 11.4 6 Sudoeste 14 Oeste 0.8 -- -- 98
2019-12-08 17:00:00 11.1 4 Sudeste 8 Sudeste 1 -- -- 97
2019-12-08 16:00:00 11.2 3 Sudeste 6 Sudeste 1.2 -- -- 95
2019-12-08 15:00:00 11.4 2 Sudeste 6 Sudoeste 2.2 -- -- 93
2019-12-08 14:00:00 11.3 0 Calma 5 Sudeste 1.2 -- -- 91
2019-12-08 13:00:00 11.6 0 Calma 6 Sudeste 0.2 -- -- 89
2019-12-08 12:00:00 11.1 3 Sur 6 Sudeste 0.2 -- -- 89
2019-12-08 11:00:00 10.6 3 Sur 6 Sudoeste 0 -- -- 84
2019-12-08 10:00:00 8.4 3 Sudeste 8 Sudeste 0 -- -- 95
2019-12-08 09:00:00 7.2 2 Oeste 7 Sudoeste 0 -- -- 96
2019-12-08 08:00:00 7 0 Calma 7 Sudeste 0 -- -- 97
2019-12-08 07:00:00 6 2 Sur 8 Sudeste 0 -- -- 98
2019-12-08 06:00:00 6.1 2 Oeste 11 Oeste 0 -- -- 98
2019-12-08 05:00:00 6 0 Calma 8 Sudeste 0 -- -- 98
2019-12-08 04:00:00 6.2 3 Sudoeste 5 Sudoeste 0 -- -- 98
2019-12-08 03:00:00 6.3 0 Calma 5 Sudeste 0 -- -- 97
2019-12-08 02:00:00 6.8 0 Calma 5 Sudeste 0 -- -- 96
2019-12-08 01:00:00 7.3 0 Calma 5 Oeste 0 -- -- 96
2019-12-08 00:00:00 7.7 0 Calma 4 Sudeste 0 -- -- 95
2019-12-07 23:00:00 8 0 Calma 3 Sudoeste 0 -- -- 94
2019-12-07 22:00:00 8.8 2 Sudeste 5 Sudoeste 0 -- -- 92
2019-12-07 21:00:00 9.7 4 Sur 9 Oeste 0 -- -- 89
2019-12-07 20:00:00 10.6 3 Sudeste 6 Sudoeste 0 -- -- 87
2019-12-07 19:00:00 11.3 4 Oeste 7 Sudoeste 0 -- -- 84
2019-12-07 18:00:00 12.4 2 Noroeste 11 Oeste 0 -- -- 77
2019-12-07 17:00:00 13.2 7 Noroeste 12 Noroeste 0 -- -- 73
2019-12-07 16:00:00 13.8 5 Sudoeste 6 Sudoeste 0 -- -- 73
2019-12-07 15:00:00 13.8 2 Noroeste 5 Oeste 0 -- -- 76
2019-12-07 14:00:00 12.3 0 Calma 4 Sudeste 0 -- -- 83
2019-12-07 13:00:00 10.6 0 Calma 5 Sudoeste 0 -- -- 89
2019-12-07 12:00:00 8.4 2 Este 5 Sudeste 0 -- -- 98
2019-12-07 11:00:00 6.7 0 Calma 6 Sudeste 0 -- -- 99
2019-12-07 10:00:00 5.7 0 Calma 4 Este 0 -- -- 99
2019-12-07 09:00:00 4.4 2 Este 6 Oeste 0 -- -- 98
2019-12-07 08:00:00 4.6 3 Sudeste 6 Sudeste 0 -- -- 98
2019-12-07 07:00:00 4.9 2 Nordeste 4 Oeste 0 -- -- 97
2019-12-07 06:00:00 5.3 0 Calma 4 Sudeste 0 -- -- 97
2019-12-07 05:00:00 5.6 2 Sudeste 4 Sudeste 0 -- -- 97
2019-12-07 04:00:00 6.1 0 Calma 4 Sudeste 0 -- -- 96
2019-12-07 03:00:00 6.5 2 Oeste 4 Noroeste 0 -- -- 95
2019-12-07 02:00:00 7 2 Oeste 5 Noroeste 0 -- -- 94
2019-12-07 01:00:00 7.4 0 Calma 5 Oeste 0 -- -- 94
2019-12-07 00:00:00 7.3 3 Sudeste 6 Sudeste 0 -- -- 95
2019-12-06 23:00:00 7.2 3 Sudeste 8 Noroeste 0 -- -- 94
2019-12-06 22:00:00 7.1 3 Oeste 8 Sudeste 0 -- -- 94
2019-12-06 21:00:00 7.8 0 Calma 5 Sudoeste 0 -- -- 92
2019-12-06 20:00:00 9 0 Calma 5 Sudoeste 0 -- -- 89
2019-12-06 19:00:00 10.3 2 Sudoeste 10 Oeste 0 -- -- 85
2019-12-06 18:00:00 12.3 3 Noroeste 13 Sur 0 -- -- 73
2019-12-06 17:00:00 13.7 7 Sudoeste 10 Oeste 0 -- -- 63
2019-12-06 16:00:00 15.1 4 Sur 9 Noroeste 0 -- -- 59
2019-12-06 15:00:00 16.3 2 Noroeste 21 Sudoeste 0 -- -- 57
2019-12-06 14:00:00 14.9 6 Sudoeste 17 Sudoeste 0 -- -- 60
2019-12-06 13:00:00 11.1 3 Oeste 11 Sudoeste 0 -- -- 78
2019-12-06 12:00:00 7.6 0 Calma 7 Sudeste 0 -- -- 100
2019-12-06 11:00:00 5.4 3 Sur 6 Sudeste 0 -- -- 100
2019-12-06 10:00:00 3.9 2 Oeste 5 Este 0 -- -- 99
2019-12-06 09:00:00 3.8 3 Sudoeste 5 Sudoeste 0 -- -- 99
2019-12-06 08:00:00 3.9 2 Sudeste 6 Sudoeste 0 -- -- 99
2019-12-06 07:00:00 4.2 2 Este 5 Sudoeste 0 -- -- 99
2019-12-06 06:00:00 4.2 2 Sudoeste 4 Sudoeste 0 -- -- 98
2019-12-06 05:00:00 5 0 Calma 4 Sudeste 0 -- -- 98
2019-12-06 04:00:00 5.2 3 Sudeste 4 Este 0 -- -- 98
2019-12-06 03:00:00 5.6 0 Calma 5 Sudoeste 0 -- -- 98
2019-12-06 02:00:00 5.9 0 Calma 4 Sudeste 0 -- -- 97
2019-12-06 01:00:00 6.1 0 Calma 3 Sudoeste 0 -- -- 96
2019-12-06 00:00:00 7.1 2 Oeste 4 Sudeste 0 -- -- 94
2019-12-05 23:00:00 7.8 3 Sudeste 6 Sudoeste 0 -- -- 95
2019-12-05 22:00:00 8.3 2 Norte 9 Sudoeste 0 -- -- 94
2019-12-05 21:00:00 8.7 4 Sudoeste 6 Sudoeste 0 -- -- 93
2019-12-05 20:00:00 9.1 2 Sur 5 Noroeste 0 -- -- 92
2019-12-05 19:00:00 9.4 3 Sudeste 9 Norte 0 -- -- 89
2019-12-05 18:00:00 10 0 Calma 12 Norte 0 -- -- 88
2019-12-05 17:00:00 11.2 4 Nordeste 18 Este 0 -- -- 85
2019-12-05 16:00:00 12.6 5 Este 15 Nordeste 0 -- -- 80
2019-12-05 15:00:00 13.5 3 Oeste 11 Nordeste 0 -- -- 69
2019-12-05 14:00:00 13 3 Nordeste 9 Nordeste 0 -- -- 73
2019-12-05 13:00:00 11.2 0 Calma 6 Nordeste 0 -- -- 76
2019-12-05 12:00:00 10.2 2 Sur 6 Noroeste 0 -- -- 85
2019-12-05 11:00:00 9.6 3 Oeste 6 Oeste 0 -- -- 84
2019-12-05 10:00:00 8.3 2 Este 4 Norte 0 -- -- 94
2019-12-05 09:00:00 7.6 0 Calma 6 Sudeste 0 -- -- 94
2019-12-05 08:00:00 7.5 0 Calma 5 Sudeste 0 -- -- 94
2019-12-05 07:00:00 7.6 0 Calma 8 Sur 0 -- -- 93
2019-12-05 06:00:00 7.4 4 Nordeste 8 Norte 0 -- -- 94
2019-12-05 05:00:00 7.2 2 Este 5 Sudoeste 0 -- -- 95
2019-12-05 04:00:00 7.2 3 Sudeste 7 Sudoeste 0 -- -- 95
2019-12-05 03:00:00 7.2 0 Calma 5 Sudoeste 0 -- -- 94
2019-12-05 02:00:00 7.2 0 Calma 6 Noroeste 0 -- -- 95
2019-12-05 01:00:00 7.2 0 Calma 12 Sudeste 0 -- -- 94
2019-12-05 00:00:00 7.2 2 Este 6 Sudoeste 0 -- -- 93
2019-12-04 23:00:00 7.2 0 Calma 6 Nordeste 0 -- -- 92
2019-12-04 22:00:00 7.3 2 Este 8 Noroeste 0 -- -- 92
2019-12-04 21:00:00 7.3 3 Sudoeste 18 Norte 0 -- -- 93
2019-12-04 20:00:00 7.8 6 Nordeste 28 Norte 0 -- -- 93
2019-12-04 19:00:00 9.2 4 Norte 15 Sudoeste 0 -- -- 88
2019-12-04 18:00:00 9.3 6 Oeste 14 Oeste 0 -- -- 82
2019-12-04 17:00:00 9.4 4 Noroeste 15 Noroeste 0 -- -- 86
2019-12-04 16:00:00 10 4 Norte 19 Norte 0 -- -- 85
2019-12-04 15:00:00 11.1 4 Norte 15 Norte 0 -- -- 79
2019-12-04 14:00:00 10.6 6 Norte 14 Norte 0 -- -- 80
2019-12-04 13:00:00 6.8 4 Noroeste 10 Oeste 0 -- -- 100
2019-12-04 12:00:00 3.8 3 Este 6 Sudeste 0 -- -- 100
2019-12-04 11:00:00 1.9 2 Sudeste 5 Sudeste 0 -- -- 100
2019-12-04 10:00:00 0.7 2 Oeste 5 Sudeste 0 -- -- 99
2019-12-04 09:00:00 0 0 Calma 5 Sudoeste 0 -- -- 99
2019-12-04 08:00:00 -0.1 2 Este 5 Sudoeste 0 -- -- 99
2019-12-04 07:00:00 0 0 Calma 5 Noroeste 0 -- -- 99
2019-12-04 06:00:00 0.1 0 Calma 4 Sudoeste 0 -- -- 99
2019-12-04 05:00:00 0.2 2 Este 4 Noroeste 0 -- -- 99
2019-12-04 04:00:00 0.5 2 Noroeste 5 Este 0 -- -- 98
2019-12-04 03:00:00 0.9 2 Sudeste 3 Sudeste 0 -- -- 99
2019-12-04 02:00:00 0.9 0 Calma 4 Sudeste 0 -- -- 98
2019-12-04 01:00:00 1 0 Calma 4 Sudeste 0 -- -- 97
2019-12-04 00:00:00 1.6 3 Sudoeste 5 Sudoeste 0 -- -- 97
2019-12-03 23:00:00 1.6 0 Calma 3 Sudeste 0 -- -- 97
2019-12-03 22:00:00 2.1 0 Calma 7 Sudeste -- -- -- 96
2019-12-03 21:00:00 2.6 2 Sudeste 5 Sudeste 0 -- -- 95
2019-12-03 20:00:00 3.2 4 Sudoeste 6 Oeste 0 -- -- 94
2019-12-03 19:00:00 4.1 3 Sudeste 6 Sudeste 0 -- -- 91
2019-12-03 18:00:00 5.3 4 Sur 9 Sudoeste 0 -- -- 86
2019-12-03 17:00:00 6.3 2 Sur 5 Este 0 -- -- 80
2019-12-03 16:00:00 7.4 0 Calma 8 Este 0 -- -- 74
2019-12-03 15:00:00 7.5 0 Calma 10 Norte 0 -- -- 77
2019-12-03 14:00:00 7.7 3 Norte 9 Nordeste 0 -- -- 79
2019-12-03 13:00:00 6.6 3 Norte 9 Norte 0 -- -- 88
2019-12-03 12:00:00 6.1 3 Nordeste 9 Nordeste 0 -- -- 91
2019-12-03 11:00:00 5.7 4 Norte 8 Norte 0 -- -- 94
2019-12-03 10:00:00 5.2 0 Calma 3 Este 0 -- -- 95
2019-12-03 09:00:00 5 0 Calma 5 Sudoeste 0 -- -- 94
2019-12-03 08:00:00 5.4 3 Oeste 5 Oeste 0 -- -- 93
2019-12-03 07:00:00 5.3 2 Sur 5 Nordeste 0 -- -- 93
2019-12-03 06:00:00 5.4 2 Este 6 Sudoeste 0 -- -- 94
2019-12-03 05:00:00 5.4 0 Calma 4 Nordeste 0 -- -- 95
2019-12-03 04:00:00 5.4 2 Este 5 Este 0.4 -- -- 94
2019-12-03 03:00:00 5.6 2 Nordeste 9 Noroeste 1 -- -- 93
2019-12-03 02:00:00 5.8 0 Calma 8 Norte 1.2 -- -- 92
2019-12-03 01:00:00 6 3 Este 7 Nordeste 0 -- -- 86
2019-12-03 00:00:00 6.1 2 Nordeste 13 Noroeste 0 -- -- 85
2019-12-02 23:00:00 6.2 4 Norte 15 Norte 0 -- -- 84
2019-12-02 22:00:00 6.4 4 Norte 15 Nordeste 0 -- -- 82
2019-12-02 21:00:00 6.6 7 Norte 19 Norte 0 -- -- 87
2019-12-02 20:00:00 6.9 5 Norte 18 Nordeste 0 -- -- 85
2019-12-02 19:00:00 6.9 2 Este 16 Nordeste 0 -- -- 81
2019-12-02 18:00:00 7 3 Norte 21 Nordeste 0 -- -- 81
2019-12-02 17:00:00 7.2 6 Norte 20 Norte 0 -- -- 87
2019-12-02 16:00:00 7.3 6 Norte 20 Norte 0.2 -- -- 88
2019-12-02 15:00:00 7.8 6 Norte 15 Norte 0 -- -- 91
2019-12-02 14:00:00 8 10 Norte 22 Norte 0 -- -- 91
2019-12-02 13:00:00 8.6 10 Norte 23 Noroeste 0.4 -- -- 94
2019-12-02 12:00:00 8.9 3 Norte 10 Norte 1.4 -- -- 95
2019-12-02 11:00:00 8.9 3 Norte 8 Norte 0.6 -- -- 96
2019-12-02 10:00:00 8.8 2 Este 12 Norte 0.6 -- -- 96
2019-12-02 09:00:00 8.8 4 Norte 13 Norte 0.6 -- -- 96
2019-12-02 08:00:00 8.7 3 Norte 9 Norte 0.6 -- -- 95
2019-12-02 07:00:00 8.8 3 Norte 13 Norte 0.8 -- -- 95
2019-12-02 06:00:00 8.8 2 Este 13 Este 0.2 -- -- 94
2019-12-02 05:00:00 8.8 0 Calma 11 Este 0 -- -- 97
2019-12-02 04:00:00 8.2 3 Oeste 12 Sudoeste 0 -- -- 98
2019-12-02 03:00:00 8 0 Calma 6 Sudoeste 0 -- -- 97
2019-12-02 02:00:00 8.1 2 Sudoeste 6 Sudeste 0 -- -- 97
2019-12-02 01:00:00 8.1 0 Calma 5 Sudoeste 0 -- -- 97
2019-12-02 00:00:00 8.3 3 Sur 9 Sudoeste 0 -- -- 97
2019-12-01 23:00:00 8.4 3 Sudoeste 8 Sur 4.2 -- -- 97
2019-12-01 22:00:00 8.5 3 Sudoeste 10 Sudoeste 0.4 -- -- 95
2019-12-01 21:00:00 8.7 3 Sudoeste 11 Sudoeste 3.2 -- -- 95
2019-12-01 20:00:00 8.7 4 Sudoeste 11 Sudoeste 3.6 -- -- 94
2019-12-01 19:00:00 8.9 2 Sur 6 Sudoeste 0 -- -- 88
2019-12-01 18:00:00 10.1 0 Calma 10 Norte 0 -- -- 81
2019-12-01 17:00:00 11.5 4 Nordeste 15 Nordeste 0 -- -- 75
2019-12-01 16:00:00 12.5 5 Nordeste 17 Este 0 -- -- 70
2019-12-01 15:00:00 14.3 4 Nordeste 12 Norte 0 -- -- 63
2019-12-01 14:00:00 13.2 0 Calma 6 Norte 0 -- -- 71
2019-12-01 13:00:00 12.7 3 Noroeste 4 Noroeste 0 -- -- 67
2019-12-01 12:00:00 11.5 0 Calma 4 Oeste 0 -- -- 78
2019-12-01 11:00:00 10.5 0 Calma 6 Este 0 -- -- 92
2019-12-01 10:00:00 7.9 4 Sudeste 8 Sudeste 0 -- -- 97
2019-12-01 09:00:00 6.3 4 Sur 6 Sudoeste 0 -- -- 99
2019-12-01 08:00:00 5.7 3 Oeste 7 Sudoeste 0 -- -- 99
2019-12-01 07:00:00 5.5 2 Oeste 10 Este 0 -- -- 99
2019-12-01 06:00:00 4.8 0 Calma 12 Oeste 0 -- -- 99
2019-12-01 05:00:00 4.6 4 Sudoeste 8 Sudoeste 0 -- -- 100
2019-12-01 04:00:00 4.7 2 Sudeste 9 Oeste 0 -- -- 99
2019-12-01 03:00:00 5.7 2 Sudoeste 7 Sudoeste 0 -- -- 99
2019-12-01 02:00:00 6.1 3 Sur 6 Sudoeste 0 -- -- 99
2019-12-01 01:00:00 6.5 3 Sudoeste 7 Este 0 -- -- 99
2019-12-01 00:00:00 6.9 4 Sudoeste 7 Sudoeste 0 -- -- 98
2019-11-30 23:00:00 7 5 Sudeste 7 Sudoeste 0 -- -- 98
2019-11-30 22:00:00 7.6 0 Calma 5 Sudeste 0 -- -- 97
2019-11-30 21:00:00 7.9 2 Sudeste 6 Sudeste 0 -- -- 96
2019-11-30 20:00:00 8.8 0 Calma 9 Oeste 0 -- -- 95
2019-11-30 19:00:00 9.4 5 Sudoeste 18 Este 0.4 -- -- 94
2019-11-30 18:00:00 9.8 4 Sudoeste 8 Sudoeste 0.8 -- -- 95
2019-11-30 17:00:00 10.2 3 Sudeste 6 Sudeste 5.4 -- -- 96
2019-11-30 16:00:00 10.4 0 Calma 15 Sudeste 4 -- -- 95
2019-11-30 15:00:00 10.8 4 Sudeste 12 Sudoeste 4.4 -- -- 93
2019-11-30 14:00:00 11.4 5 Oeste 14 Nordeste 7.8 -- -- 94
2019-11-30 13:00:00 12.3 6 Norte 19 Norte 0.4 -- -- 91
2019-11-30 12:00:00 15.6 3 Sur 22 Este 0.2 -- -- 69
2019-11-30 11:00:00 16.2 7 Sudeste 21 Este 0 -- -- 62
2019-11-30 10:00:00 15.6 5 Este 17 Oeste 0 -- -- 64
2019-11-30 09:00:00 15.2 5 Sudeste 19 Sudoeste 0 -- -- 69
2019-11-30 08:00:00 14.2 5 Sudeste 18 Este 0 -- -- 73
2019-11-30 07:00:00 12.4 6 Sudeste 13 Sudeste 0.4 -- -- 80
2019-11-30 06:00:00 12.4 3 Sudeste 12 Sudeste 0 -- -- 78
2019-11-30 05:00:00 12.4 5 Sur 15 Sudeste 0 -- -- 73
2019-11-30 04:00:00 9.4 3 Sur 10 Sudeste 0 -- -- 97
2019-11-30 03:00:00 7.8 2 Sudoeste 7 Oeste 0 -- -- 98
2019-11-30 02:00:00 7.6 2 Oeste 14 Oeste 0 -- -- 98
2019-11-30 01:00:00 7.5 4 Oeste 11 Sudoeste 0 -- -- 98
2019-11-30 00:00:00 7.7 0 Calma 5 Sudoeste 0 -- -- 97
2019-11-29 23:00:00 8.2 0 Calma 2 Sudeste 0 -- -- 97
2019-11-29 22:00:00 8.4 0 Calma 4 Oeste 0 -- -- 96
2019-11-29 21:00:00 8.7 0 Calma 3 Norte 0 -- -- 94
2019-11-29 20:00:00 9.4 0 Calma 3 Sudoeste 0 -- -- 92
2019-11-29 19:00:00 10.5 4 Sudoeste 6 Sudoeste 0 -- -- 88
2019-11-29 18:00:00 12.6 3 Este 12 Nordeste 0 -- -- 80
2019-11-29 17:00:00 13.7 5 Nordeste 15 Nordeste 0 -- -- 79
2019-11-29 16:00:00 14.6 4 Sudoeste 8 Oeste 0 -- -- 68
2019-11-29 15:00:00 16.9 3 Oeste 11 Oeste 0 -- -- 61
2019-11-29 14:00:00 15.4 3 Sudoeste 10 Noroeste 0 -- -- 70
2019-11-29 13:00:00 14.7 0 Calma 7 Sudeste 0 -- -- 72
2019-11-29 12:00:00 14.1 2 Sudoeste 6 Noroeste 0 -- -- 83
2019-11-29 11:00:00 12.8 3 Sudeste 6 Sudeste 0 -- -- 94
2019-11-29 10:00:00 11.7 3 Sur 7 Noroeste 0 -- -- 95
2019-11-29 09:00:00 11.5 3 Sudoeste 9 Sudoeste 0 -- -- 94
2019-11-29 08:00:00 11.4 3 Oeste 9 Sudoeste 0 -- -- 94
2019-11-29 07:00:00 11.5 7 Sudeste 14 Sudoeste 0 -- -- 93
2019-11-29 06:00:00 12.3 6 Sur 14 Sudeste 0 -- -- 89
2019-11-29 05:00:00 12 3 Sur 9 Oeste 0 -- -- 95
2019-11-29 04:00:00 11.9 3 Sur 10 Oeste 0 -- -- 97
2019-11-29 03:00:00 11.4 0 Calma 6 Noroeste 0.6 -- -- 98
2019-11-29 02:00:00 11.4 0 Calma 6 Este 0.4 -- -- 97
2019-11-29 01:00:00 11.5 2 Sur 8 Sudoeste 1.2 -- -- 97
2019-11-29 00:00:00 11 3 Norte 10 Sudeste 0 -- -- 96
2019-11-28 23:00:00 10.4 3 Sudeste 6 Sudeste 0 -- -- 97
2019-11-28 22:00:00 10.2 3 Sudoeste 5 Sudoeste 0 -- -- 96
2019-11-28 21:00:00 10.5 2 Sur 8 Norte 0 -- -- 96
2019-11-28 20:00:00 10.7 5 Norte 13 Norte 0 -- -- 96
2019-11-28 19:00:00 10.8 0 Calma 9 Sur 1.8 -- -- 94
2019-11-28 18:00:00 11 4 Sudeste 18 Nordeste 4.2 -- -- 93
2019-11-28 17:00:00 12.1 5 Este 23 Nordeste 1.6 -- -- 88
2019-11-28 16:00:00 12.5 3 Este 7 Este 0 -- -- 86
2019-11-28 15:00:00 12.8 2 Sudoeste 5 Oeste 0 -- -- 84
2019-11-28 14:00:00 12.9 3 Noroeste 5 Oeste 0 -- -- 82
2019-11-28 13:00:00 12.8 2 Oeste 5 Oeste 0 -- -- 85
2019-11-28 12:00:00 12.2 2 Este 5 Oeste 0 -- -- 88
2019-11-28 11:00:00 11.2 2 Sudeste 8 Este 0 -- -- 91
2019-11-28 10:00:00 10.3 3 Sudeste 6 Oeste 0 -- -- 91
2019-11-28 09:00:00 9.9 0 Calma 5 Sudoeste 0 -- -- 91
2019-11-28 08:00:00 9.9 2 Oeste 8 Sur 0 -- -- 91
2019-11-28 07:00:00 10.1 3 Sur 8 Sudeste 0 -- -- 88
2019-11-28 06:00:00 11.1 3 Sur 9 Sur 0 -- -- 82
2019-11-28 05:00:00 11.9 2 Este 18 Norte 0 -- -- 75
2019-11-28 04:00:00 12.4 9 Noroeste 30 Sudoeste 0 -- -- 71
2019-11-28 03:00:00 12.1 4 Norte 14 Sur 0 -- -- 72
2019-11-28 02:00:00 11.9 4 Norte 23 Sur 0 -- -- 75
2019-11-28 01:00:00 11.5 3 Norte 24 Sudoeste 0 -- -- 80
2019-11-28 00:00:00 10.1 2 Sur 8 Noroeste 0 -- -- 92
2019-11-27 23:00:00 10.2 3 Sudeste 9 Sudoeste 0.2 -- -- 94
2019-11-27 22:00:00 10.4 2 Sur 7 Sudoeste 0 -- -- 92
2019-11-27 21:00:00 11.1 0 Calma 8 Sudoeste 0 -- -- 92
2019-11-27 20:00:00 11.3 4 Sur 8 Este 0 -- -- 90
2019-11-27 19:00:00 11.9 3 Sur 9 Sudoeste 0.4 -- -- 85
2019-11-27 18:00:00 13 2 Oeste 10 Norte 0.2 -- -- 79
2019-11-27 17:00:00 14.8 4 Noroeste 26 Oeste 0 -- -- 61
2019-11-27 16:00:00 15.5 5 Oeste 31 Sudoeste 0 -- -- 57
2019-11-27 15:00:00 15.8 7 Sur 23 Oeste 0 -- -- 54
2019-11-27 14:00:00 16.3 5 Oeste 19 Este 0 -- -- 54
2019-11-27 06:00:00 13.3 4 Sudeste 27 Oeste 0 -- -- 55
2019-11-27 05:00:00 14.5 8 Sudoeste 24 Sur 0 -- -- 50
2019-11-27 04:00:00 15 6 Noroeste 22 Oeste 0 -- -- 54
2019-11-27 03:00:00 15.4 6 Norte 39 Oeste 0 -- -- 55
2019-11-27 02:00:00 15.9 8 Oeste 27 Sudoeste 0 -- -- 55
2019-11-27 01:00:00 16.5 8 Sudoeste 24 Oeste 0 -- -- 58
2019-11-27 00:00:00 17.1 7 Sudoeste 27 Sur 0 -- -- 55
2019-11-26 23:00:00 17.8 8 Sur 32 Sudoeste 0 -- -- 51
2019-11-26 22:00:00 18.6 12 Sudoeste 42 Oeste 0 -- -- 50
2019-11-26 21:00:00 19 10 Sudoeste 39 Sudeste 0 -- -- 52
2019-11-26 20:00:00 17.7 7 Sur 24 Sudoeste 0 -- -- 60
2019-11-26 19:00:00 17.5 5 Sur 25 Sudeste 0 -- -- 64
2019-11-26 18:00:00 17.5 7 Sudeste 32 Sudeste 0 -- -- 63
2019-11-26 17:00:00 17.9 9 Sudeste 29 Sudeste 0 -- -- 60
2019-11-26 16:00:00 18.4 10 Sudeste 34 Sur 0 -- -- 58
2019-11-26 15:00:00 18.9 12 Sudeste 34 Sudeste 0 -- -- 58
2019-11-26 14:00:00 18.6 9 Sudeste 26 Este 0 -- -- 57
2019-11-26 13:00:00 19.4 10 Sudoeste 34 Sur 0 -- -- 58
2019-11-26 12:00:00 19 9 Sur 27 Sudoeste 0 -- -- 59
2019-11-26 11:00:00 18.4 9 Sudoeste 32 Oeste 0 -- -- 61
2019-11-26 10:00:00 17.2 3 Este 12 Sudoeste 0 -- -- 66
2019-11-26 09:00:00 15.5 4 Sudoeste 22 Sudoeste 0 -- -- 68
2019-11-26 08:00:00 15.6 5 Nordeste 27 Oeste 0 -- -- 65
2019-11-26 07:00:00 15.2 5 Sur 17 Sur 0 -- -- 64
2019-11-26 06:00:00 13.9 5 Sur 11 Sur 0 -- -- 69
2019-11-26 05:00:00 14.3 5 Sudoeste 13 Sudoeste 0 -- -- 66
2019-11-26 04:00:00 13.2 6 Sur 10 Sudoeste 0 -- -- 68
2019-11-26 03:00:00 12.3 3 Sudoeste 9 Sudoeste 0 -- -- 77
2019-11-26 02:00:00 11.5 4 Sudoeste 8 Sudeste 0 -- -- 82
2019-11-26 01:00:00 9.7 3 Sudeste 11 Oeste 0 -- -- 97
2019-11-26 00:00:00 9.4 4 Sur 6 Sudoeste 0 -- -- 97
2019-11-25 23:00:00 9.9 4 Oeste 9 Sudoeste 0 -- -- 95
2019-11-25 22:00:00 10.6 2 Sur 3 Sur 0 -- -- 93
2019-11-25 21:00:00 11.9 0 Calma 4 Este 0 -- -- 91
2019-11-25 20:00:00 12.7 0 Calma 4 Sudoeste 0 -- -- 89
2019-11-25 19:00:00 13 0 Calma 5 Nordeste 0 -- -- 87
2019-11-25 18:00:00 13.7 4 Este 10 Este 0 -- -- 83
2019-11-25 17:00:00 14.1 5 Este 14 Nordeste 0 -- -- 81
2019-11-25 16:00:00 14.7 4 Nordeste 13 Nordeste 0 -- -- 79
2019-11-25 15:00:00 14.9 5 Nordeste 21 Nordeste 0 -- -- 78
2019-11-25 14:00:00 15 6 Nordeste 22 Norte 0 -- -- 75
2019-11-25 13:00:00 16.7 4 Oeste 10 Oeste 0 -- -- 68
2019-11-25 12:00:00 15.8 0 Calma 8 Sudoeste 0 -- -- 69
2019-11-25 11:00:00 14.3 3 Sudeste 8 Sudeste 0 -- -- 78
2019-11-25 10:00:00 11.9 2 Norte 9 Sudoeste 0 -- -- 87
2019-11-25 09:00:00 11 4 Sudeste 8 Sudeste 0 -- -- 89
2019-11-25 08:00:00 11.5 4 Sur 10 Noroeste 0 -- -- 83
2019-11-25 07:00:00 12.7 5 Sudeste 12 Sudoeste 0 -- -- 78
2019-11-25 06:00:00 12.4 4 Sur 12 Este 0 -- -- 80
2019-11-25 05:00:00 11.7 3 Sur 8 Sur 0 -- -- 81
2019-11-25 04:00:00 11.5 3 Sur 9 Sudoeste 0 -- -- 82
2019-11-25 03:00:00 11.3 3 Sudoeste 7 Este 0 -- -- 83
2019-11-25 02:00:00 11.8 3 Sudeste 12 Sur 0 -- -- 83
2019-11-25 01:00:00 11.9 6 Sudoeste 14 Sudoeste 0.2 -- -- 80
2019-11-25 00:00:00 10.3 2 Este 9 Sur 0 -- -- 89
2019-11-24 23:00:00 10.3 5 Sudeste 10 Sudoeste 1.8 -- -- 90
2019-11-24 22:00:00 11.1 4 Sudoeste 13 Sudoeste 0.4 -- -- 79
2019-11-24 21:00:00 11.4 5 Sudoeste 9 Sudoeste 0 -- -- 67
2019-11-24 20:00:00 10.6 2 Sudeste 8 Sudoeste 0 -- -- 73
2019-11-24 19:00:00 11 4 Sudoeste 14 Sudeste 0 -- -- 67
2019-11-24 18:00:00 11.1 5 Sur 10 Sudeste 0 -- -- 67
2019-11-24 17:00:00 11.8 5 Sur 12 Sur 0 -- -- 69
2019-11-24 16:00:00 12.2 4 Sudeste 11 Sudeste 0 -- -- 77
2019-11-24 15:00:00 12.3 3 Sur 8 Sudeste 0 -- -- 73
2019-11-24 14:00:00 11.3 3 Este 8 Sudeste 0 -- -- 82
2019-11-24 13:00:00 10.9 4 Oeste 16 Sudoeste 0 -- -- 80
2019-11-24 12:00:00 10.5 6 Sudoeste 15 Oeste 0 -- -- 84
2019-11-24 11:00:00 9.6 3 Oeste 5 Oeste 0 -- -- 95
2019-11-24 10:00:00 9.2 3 Sur 8 Sudeste 0 -- -- 95
2019-11-24 09:00:00 8.7 3 Este 10 Sur 0.4 -- -- 94
2019-11-24 08:00:00 8.5 3 Sur 6 Sur 0.2 -- -- 94
2019-11-24 07:00:00 8.6 3 Sudeste 12 Oeste 1.2 -- -- 93
2019-11-24 06:00:00 8.5 3 Sudoeste 9 Sur 0.4 -- -- 93
2019-11-24 05:00:00 8.4 3 Sur 12 Sur 0.2 -- -- 94
2019-11-24 04:00:00 8 3 Sur 10 Sudoeste 2 -- -- 96
2019-11-24 03:00:00 8 5 Sur 8 Sur 2.2 -- -- 96
2019-11-24 02:00:00 8.2 4 Sur 9 Sudeste 5 -- -- 95
2019-11-24 01:00:00 8.5 5 Sudeste 9 Sudeste 2.4 -- -- 92
2019-11-24 00:00:00 8.8 3 Sur 16 Oeste 1.4 -- -- 89
2019-11-23 23:00:00 9.1 4 Sudoeste 24 Noroeste 0.6 -- -- 85
2019-11-23 22:00:00 9 3 Sudoeste 12 Noroeste 0.4 -- -- 88
2019-11-23 21:00:00 9 4 Sudoeste 21 Sudoeste 1.2 -- -- 87
2019-11-23 20:00:00 9.1 3 Sudoeste 8 Sur 0.8 -- -- 90
2019-11-23 19:00:00 9.3 4 Oeste 19 Oeste 2.4 -- -- 90
2019-11-23 18:00:00 9.7 8 Oeste 44 Noroeste 0.4 -- -- 86
2019-11-23 17:00:00 10.5 12 Noroeste 20 Noroeste 0.8 -- -- 82
2019-11-23 16:00:00 10.3 8 Oeste 42 Noroeste 0.2 -- -- 80
2019-11-23 15:00:00 10.1 9 Oeste 36 Oeste 1.8 -- -- 84
2019-11-23 14:00:00 10 10 Oeste 29 Oeste 1.4 -- -- 85
2019-11-23 13:00:00 10.1 12 Oeste 29 Oeste 0.2 -- -- 83
2019-11-23 12:00:00 9.5 8 Oeste 33 Oeste 1.2 -- -- 87
2019-11-23 11:00:00 9.1 10 Noroeste 40 Oeste 5 -- -- 90
2019-11-23 10:00:00 9.5 11 Noroeste 48 Sudoeste 6 -- -- 88
2019-11-23 09:00:00 9.8 15 Oeste 52 Sudoeste 5.6 -- -- 86
2019-11-23 08:00:00 10.2 16 Oeste 43 Oeste 5.2 -- -- 86
2019-11-23 07:00:00 9.4 8 Noroeste 21 Noroeste 4.4 -- -- 88
2019-11-23 06:00:00 9.7 4 Sur 20 Oeste 2.2 -- -- 86
2019-11-23 05:00:00 11.1 6 Sur 25 Sur 0.8 -- -- 75
2019-11-23 04:00:00 12.8 5 Nordeste 27 Sur 0 -- -- 61
2019-11-23 03:00:00 13.3 4 Sudoeste 36 Sudoeste 0 -- -- 57
2019-11-23 02:00:00 13.5 6 Este 32 Sudoeste 0 -- -- 58
2019-11-23 01:00:00 13.9 8 Sur 32 Oeste 0 -- -- 57
2019-11-23 00:00:00 14.2 8 Norte 54 Oeste 0 -- -- 57
2019-11-22 23:00:00 14.3 10 Nordeste 44 Sudoeste 0 -- -- 55
2019-11-22 22:00:00 14.6 10 Sur 36 Sudoeste 0 -- -- 52
2019-11-22 21:00:00 13.6 9 Sudeste 26 Este 0 -- -- 62
2019-11-22 20:00:00 13.2 5 Sur 19 Este 0 -- -- 67
2019-11-22 19:00:00 12.4 7 Sudoeste 40 Sudeste 0.2 -- -- 70
2019-11-22 18:00:00 13.2 7 Oeste 31 Sudeste 0 -- -- 68
2019-11-22 17:00:00 13 6 Norte 41 Sudeste 0 -- -- 67
2019-11-22 16:00:00 12.3 7 Sudeste 45 Este 0.8 -- -- 73
2019-11-22 15:00:00 12.8 9 Este 36 Sur 0 -- -- 66
2019-11-22 14:00:00 13.7 13 Sudeste 44 Sudeste 0 -- -- 61
2019-11-22 13:00:00 13.2 15 Sudeste 40 Este 0 -- -- 60
2019-11-22 12:00:00 13 13 Sudeste 44 Este 0 -- -- 60
2019-11-22 11:00:00 12.3 14 Sudeste 48 Sudeste 0 -- -- 61
2019-11-22 10:00:00 12 12 Sudeste 47 Sudeste 0 -- -- 62
2019-11-22 09:00:00 11.6 10 Sudeste 40 Este 0 -- -- 63
2019-11-22 08:00:00 11.3 8 Sur 31 Este 0 -- -- 62
2019-11-22 07:00:00 11 7 Sur 30 Sudeste 0 -- -- 64
2019-11-22 06:00:00 10.8 6 Oeste 27 Sudeste 0 -- -- 64
2019-11-22 05:00:00 10.9 4 Norte 21 Sudeste 0 -- -- 64
2019-11-22 04:00:00 10.6 6 Sur 16 Sudeste 0 -- -- 64
2019-11-22 03:00:00 10.2 3 Sur 15 Sudeste 0 -- -- 65
2019-11-22 02:00:00 9.5 3 Sur 26 Sudeste 0 -- -- 67
2019-11-22 01:00:00 9.6 4 Sudeste 13 Sudeste 0 -- -- 68
2019-11-22 00:00:00 6.4 3 Sudeste 7 Sudeste 0 -- -- 89
2019-11-21 23:00:00 5.7 2 Sur 6 Sudeste 0 -- -- 92
2019-11-21 22:00:00 6.1 3 Sudoeste 6 Sudoeste 0 -- -- 89
2019-11-21 21:00:00 6.9 0 Calma 5 Sudoeste 0 -- -- 86
2019-11-21 20:00:00 7.7 2 Sudeste 5 Sudoeste 0 -- -- 82
2019-11-21 19:00:00 9 0 Calma 5 Sudoeste 0 -- -- 77
2019-11-21 18:00:00 10.5 0 Calma 14 Este 0 -- -- 69
2019-11-21 17:00:00 12.1 4 Sudeste 12 Oeste 0 -- -- 62
2019-11-21 16:00:00 13.4 6 Sudeste 18 Sudeste 0 -- -- 54
2019-11-21 15:00:00 14.1 8 Sur 19 Sudoeste 0 -- -- 51
2019-11-21 14:00:00 13.9 4 Sur 23 Oeste 0 -- -- 54
2019-11-21 13:00:00 13.1 5 Sur 30 Sur 0 -- -- 56
2019-11-21 12:00:00 13.6 5 Norte 26 Oeste 0 -- -- 55
2019-11-21 11:00:00 13.1 4 Este 18 Este 0 -- -- 56
2019-11-21 10:00:00 11.9 4 Este 17 Sudeste 0 -- -- 60
2019-11-21 09:00:00 10.1 4 Sur 19 Sudoeste 0 -- -- 65
2019-11-21 08:00:00 9.3 6 Sudeste 14 Sudeste 0 -- -- 70
2019-11-21 07:00:00 8.7 6 Sudeste 17 Sudeste 0 -- -- 73
2019-11-21 06:00:00 8.3 4 Sudeste 14 Sudeste 0 -- -- 75
2019-11-21 05:00:00 8.8 5 Sudeste 22 Este 0 -- -- 73
2019-11-21 04:00:00 8.9 5 Sudeste 18 Sudeste 0 -- -- 72
2019-11-21 03:00:00 8.9 5 Sudeste 19 Este 0 -- -- 72
2019-11-21 02:00:00 9 6 Sudeste 19 Sudeste 0 -- -- 71
2019-11-21 01:00:00 9.5 5 Sudeste 28 Este 0 -- -- 68
2019-11-21 00:00:00 9.8 7 Sudeste 30 Sudeste 0 -- -- 66
2019-11-20 23:00:00 9.8 7 Sudeste 28 Sudoeste 0 -- -- 68
2019-11-20 22:00:00 10.2 4 Norte 18 Sudeste 0 -- -- 63
2019-11-20 21:00:00 10.3 4 Norte 20 Este 0 -- -- 62
2019-11-20 20:00:00 10.2 4 Sur 18 Sur 0 -- -- 64
2019-11-20 19:00:00 10.7 6 Sudeste 24 Este 0 -- -- 59
2019-11-20 18:00:00 11 7 Sudoeste 23 Sudeste 0 -- -- 59
2019-11-20 17:00:00 11.7 7 Sur 20 Sudoeste 0 -- -- 57
2019-11-20 16:00:00 12.2 8 Sudoeste 25 Sudoeste 0 -- -- 53
2019-11-20 15:00:00 12.6 6 Sur 27 Sudeste 0 -- -- 52
2019-11-20 14:00:00 12.1 7 Sudeste 26 Sudeste 0 -- -- 54
2019-11-20 13:00:00 11.1 9 Sudeste 27 Sudeste 0 -- -- 56
2019-11-20 12:00:00 10.3 8 Este 25 Sudeste 0 -- -- 60
2019-11-20 11:00:00 9.6 6 Sur 27 Sudeste 0 -- -- 62
2019-11-20 10:00:00 8.9 10 Sudeste 23 Este 0 -- -- 64
2019-11-20 09:00:00 7.7 4 Sudeste 20 Este 0 -- -- 69
2019-11-20 08:00:00 7.2 5 Sur 17 Sudeste 0 -- -- 72
2019-11-20 07:00:00 7.7 6 Sudeste 16 Sudeste 0 -- -- 71
2019-11-20 06:00:00 7.6 5 Sudeste 18 Sudeste 0 -- -- 73
2019-11-20 05:00:00 7 3 Sudeste 13 Este 0 -- -- 77
2019-11-20 04:00:00 5.5 4 Sur 11 Sudeste 0 -- -- 89
2019-11-20 03:00:00 4.5 3 Oeste 5 Oeste 0 -- -- 96
2019-11-20 02:00:00 4.3 3 Sudoeste 7 Sudoeste 0 -- -- 97
2019-11-20 01:00:00 4.2 0 Calma 5 Oeste 0 -- -- 97
2019-11-20 00:00:00 4.4 0 Calma 4 Oeste 0 -- -- 97
2019-11-19 23:00:00 4.6 0 Calma 4 Sudoeste -- -- -- 97
2019-11-19 22:00:00 5 2 Sur 4 Sudeste 0 -- -- 96
2019-11-19 21:00:00 5.3 0 Calma 7 Oeste 0 -- -- 95
2019-11-19 20:00:00 6 0 Calma 6 Sudeste 0 -- -- 94
2019-11-19 19:00:00 6.8 3 Sudoeste 5 Oeste 0 -- -- 91
2019-11-19 18:00:00 8.3 4 Sudoeste 6 Sudoeste 0 -- -- 85
2019-11-19 17:00:00 10.2 2 Sudoeste 9 Noroeste 0 -- -- 75
2019-11-19 16:00:00 11.8 2 Nordeste 4 Este 0 -- -- 68
2019-11-19 15:00:00 12.1 0 Calma 3 Este 0 -- -- 66
2019-11-19 14:00:00 11.7 0 Calma 3 Nordeste 0 -- -- 67
2019-11-19 13:00:00 9.1 0 Calma 5 Noroeste 0 -- -- 82
2019-11-19 12:00:00 7.7 0 Calma 6 Este 0 -- -- 99
2019-11-19 11:00:00 5.6 3 Este 6 Este 0 -- -- 99
2019-11-19 10:00:00 4.9 2 Nordeste 5 Nordeste 0 -- -- 99
2019-11-19 09:00:00 4.3 0 Calma 5 Oeste 0 -- -- 99
2019-11-19 08:00:00 4.4 0 Calma 8 Este 0 -- -- 99
2019-11-19 07:00:00 4.6 3 Sudoeste 6 Sudoeste 0 -- -- 99
2019-11-19 06:00:00 4.4 2 Sudoeste 6 Sudoeste 0 -- -- 99
2019-11-19 05:00:00 4.3 3 Sudeste 8 Sudoeste 0 -- -- 98
2019-11-19 04:00:00 4.8 4 Sudoeste 8 Sudoeste 0 -- -- 98
2019-11-19 03:00:00 5 2 Sudeste 7 Sudeste 0 -- -- 98
2019-11-19 02:00:00 4.7 0 Calma 4 Sudeste 0 -- -- 98
2019-11-19 01:00:00 4.6 2 Sudeste 8 Sudeste 0 -- -- 98
2019-11-19 00:00:00 4.7 4 Sudeste 8 Sudeste 0 -- -- 97
2019-11-18 23:00:00 5.3 4 Este 8 Sudeste 0 -- -- 97
2019-11-18 22:00:00 5.5 0 Calma 4 Sudeste 0 -- -- 96
2019-11-18 21:00:00 6.1 3 Sudoeste 8 Sudeste 0 -- -- 95
2019-11-18 20:00:00 6.7 5 Sudeste 8 Este 0.6 -- -- 95
2019-11-18 19:00:00 7 2 Oeste 5 Sudeste 0 -- -- 93
2019-11-18 18:00:00 7.6 2 Sur 5 Sudoeste 0 -- -- 87
2019-11-18 17:00:00 8.5 2 Sudoeste 5 Nordeste 0 -- -- 82
2019-11-18 16:00:00 8.7 3 Este 6 Sudeste 0 -- -- 78
2019-11-18 15:00:00 8.6 3 Sudeste 5 Sudeste 0 -- -- 78
2019-11-18 14:00:00 -- -- -- -- -- -- -- -- --
2019-11-18 13:00:00 -- 2 Norte -- -- -- -- -- --
2019-11-18 12:00:00 7.2 5 Norte 14 Norte 0 -- -- 84
2019-11-18 11:00:00 7.6 2 Nordeste 9 Norte 0 -- -- 91
2019-11-18 10:00:00 6.9 3 Norte 6 Sur 0 -- -- 97
2019-11-18 09:00:00 6.4 2 Sur 10 Este 0 -- -- 96
2019-11-18 08:00:00 6.1 3 Sudeste 8 Sur 0 -- -- 94
2019-11-18 07:00:00 6.6 3 Sudoeste 26 Noroeste 0 -- -- 91
2019-11-18 06:00:00 7 4 Norte 17 Norte 0 -- -- 93
2019-11-18 05:00:00 7.1 5 Noroeste 15 Sudoeste 0 -- -- 92
2019-11-18 04:00:00 7.4 4 Noroeste 21 Oeste 0 -- -- 88
2019-11-18 03:00:00 7.9 9 Sudoeste 16 Sudoeste 0 -- -- 89
2019-11-18 02:00:00 7.8 5 Sudoeste 16 Oeste 0 -- -- 93
2019-11-18 01:00:00 7.4 4 Sudeste 15 Sudoeste 0 -- -- 96
2019-11-18 00:00:00 7.3 4 Sudeste 12 Sudoeste 0 -- -- 95
2019-11-17 23:00:00 7.7 6 Sudoeste 15 Sudoeste 0 -- -- 92
2019-11-17 22:00:00 7.8 2 Sudeste 13 Sudoeste 0 -- -- 94
2019-11-17 21:00:00 7.9 4 Sur 11 Oeste 0 -- -- 94
2019-11-17 20:00:00 8.2 3 Este 8 Sudeste 0 -- -- 92
2019-11-17 19:00:00 8.9 3 Sudeste 9 Sudeste 0 -- -- 88
2019-11-17 18:00:00 9.2 4 Sur 14 Noroeste 0 -- -- 88
2019-11-17 17:00:00 9.7 4 Sur 18 Oeste 0 -- -- 87
2019-11-17 16:00:00 10.5 5 Noroeste 18 Oeste 0 -- -- 82
2019-11-17 15:00:00 10.2 5 Oeste 13 Noroeste 0 -- -- 86
2019-11-17 14:00:00 9.2 4 Sudoeste 9 Nordeste 0 -- -- 94
2019-11-17 13:00:00 8.3 4 Sudoeste 9 Oeste 0 -- -- 91
2019-11-17 12:00:00 8.1 2 Sur 7 Sudoeste 0 -- -- 93
2019-11-17 11:00:00 7.4 4 Sudeste 12 Oeste 0 -- -- 94
2019-11-17 10:00:00 7.1 4 Sudoeste 7 Sur 0 -- -- 94
2019-11-17 09:00:00 6.9 2 Sur 4 Sudeste 0 -- -- 94
2019-11-17 08:00:00 6.5 0 Calma 5 Sudeste 0 -- -- 96
2019-11-17 07:00:00 6.5 3 Sur 6 Sudeste 0 -- -- 97
2019-11-17 06:00:00 6.5 2 Sudoeste 6 Este 0 -- -- 97
2019-11-17 05:00:00 6.5 3 Sur 7 Sudeste 0 -- -- 97
2019-11-17 04:00:00 6.5 0 Calma 6 Sudeste 0 -- -- 96
2019-11-17 03:00:00 6.6 4 Sudoeste 8 Sudoeste 0 -- -- 95
2019-11-17 02:00:00 6.8 2 Sudoeste 5 Sur 0 -- -- 93
2019-11-17 01:00:00 7 2 Nordeste 10 Oeste 0 -- -- 89
2019-11-17 00:00:00 7.3 3 Sudoeste 9 Oeste 0 -- -- 87
2019-11-16 23:00:00 7.4 3 Sudoeste 15 Sudoeste 0 -- -- 86
2019-11-16 22:00:00 7.1 3 Sur 15 Sudoeste 0 -- -- 88
2019-11-16 21:00:00 7.2 4 Sur 12 Oeste 0 -- -- 89
2019-11-16 20:00:00 7.6 5 Sur 14 Sur 0 -- -- 86
2019-11-16 19:00:00 7.2 5 Nordeste 11 Noroeste 0 -- -- 89
2019-11-16 18:00:00 7 3 Sur 11 Noroeste 0 -- -- 93
2019-11-16 17:00:00 6.9 4 Sudeste 10 Sudoeste 0 -- -- 94
2019-11-16 16:00:00 7.1 4 Sudoeste 14 Noroeste 0 -- -- 91
2019-11-16 15:00:00 6.1 3 Sur 10 Sudeste 0 -- -- 92
2019-11-16 14:00:00 5.6 4 Sudeste 9 Sur 0 -- -- 92
2019-11-16 13:00:00 5.2 4 Sur 7 Sur 0 -- -- 95
2019-11-16 12:00:00 5.2 2 Sudeste 15 Oeste 0 -- -- 92
2019-11-16 11:00:00 5.3 3 Sur 8 Sudoeste 0 -- -- 97
2019-11-16 10:00:00 4.5 0 Calma 9 Sudeste 0 -- -- 98
2019-11-16 09:00:00 3.8 3 Sudoeste 10 Este 0 -- -- 100
2019-11-16 08:00:00 2.2 0 Calma 5 Sur 0 -- -- 99
2019-11-16 07:00:00 1.5 0 Calma 6 Oeste 0 -- -- 99
2019-11-16 06:00:00 1.4 2 Sur 5 Sudeste 0 -- -- 98
2019-11-16 05:00:00 1.9 3 Sudeste 6 Sudeste 0 -- -- 98
2019-11-16 04:00:00 2.4 0 Calma 5 Oeste 0 -- -- 97
2019-11-16 03:00:00 2.6 2 Sudoeste 5 Este 0 -- -- 97
2019-11-16 02:00:00 2.9 2 Sudoeste 6 Este 0 -- -- 96
2019-11-16 01:00:00 3.7 2 Sudeste 5 Sudoeste 0 -- -- 96
2019-11-16 00:00:00 4.1 0 Calma 6 Sudeste 0 -- -- 95
2019-11-15 23:00:00 4.4 2 Sur 4 Este 0 -- -- 95
2019-11-15 22:00:00 4.8 3 Sur 5 Oeste 0 -- -- 92
2019-11-15 21:00:00 5.6 0 Calma 7 Sur 0 -- -- 91
2019-11-15 20:00:00 5.7 3 Sur 8 Sur 0 -- -- 92
2019-11-15 19:00:00 6 2 Sudeste 16 Sudoeste 0 -- -- 90
2019-11-15 18:00:00 6.2 6 Sudoeste 15 Oeste 0 -- -- 90
2019-11-15 17:00:00 6.3 4 Oeste 22 Sudoeste 0 -- -- 94
2019-11-15 16:00:00 6.5 2 Sudoeste 8 Oeste 0 -- -- 91
2019-11-15 15:00:00 7.2 4 Nordeste 18 Nordeste 0 -- -- 84
2019-11-15 14:00:00 10 5 Nordeste 19 Norte 0 -- -- 72
2019-11-15 13:00:00 9.5 6 Norte 21 Noroeste 0 -- -- 75
2019-11-15 12:00:00 9 11 Oeste 27 Noroeste 0.2 -- -- 77
2019-11-15 11:00:00 7.4 11 Noroeste 26 Noroeste 2.6 -- -- 91
2019-11-15 10:00:00 5.6 5 Este 13 Sudoeste 1.2 -- -- 93
2019-11-15 09:00:00 5.3 5 Sudeste 12 Nordeste 0.2 -- -- 92
2019-11-15 08:00:00 5.1 2 Sur 7 Oeste 0.4 -- -- 91
2019-11-15 07:00:00 5.4 4 Sudoeste 12 Sudoeste 1.4 -- -- 89
2019-11-15 06:00:00 5.9 3 Sudoeste 8 Sudoeste 0.6 -- -- 85
2019-11-15 05:00:00 6.2 2 Oeste 9 Sudeste 0 -- -- 80
2019-11-15 04:00:00 6.5 3 Sudoeste 21 Sudoeste 0 -- -- 75
2019-11-15 03:00:00 6.3 3 Sur 8 Sudoeste 0 -- -- 81
2019-11-15 02:00:00 6.1 0 Calma 4 Sur 0 -- -- 83
2019-11-15 01:00:00 6.1 0 Calma 6 Sudoeste 0 -- -- 87
2019-11-15 00:00:00 6.4 0 Calma 9 Sudoeste 0 -- -- 82